createdAt,value
2023-03-12T00:01:20.136Z,76.81
2023-03-12T00:03:47.902Z,77.37
2023-03-12T00:06:15.120Z,76.82
2023-03-12T00:08:42.163Z,77.66
2023-03-12T00:11:12.259Z,77.71
2023-03-12T00:13:39.746Z,77.94
2023-03-12T00:16:16.013Z,76.87
2023-03-12T00:18:43.919Z,78.09
2023-03-12T00:21:11.061Z,76.98
2023-03-12T00:23:37.561Z,77.20
2023-03-12T00:26:06.963Z,77.24
2023-03-12T00:28:35.010Z,78.71
2023-03-12T00:31:02.538Z,78.98
2023-03-12T00:33:29.477Z,78.83
2023-03-12T00:36:01.693Z,79.95
2023-03-12T00:38:28.193Z,79.73
2023-03-12T00:40:54.731Z,80.76
2023-03-12T00:43:21.382Z,80.38
2023-03-12T00:45:47.926Z,79.18
2023-03-12T00:48:14.570Z,79.57
2023-03-12T00:50:41.103Z,79.68
2023-03-12T00:53:07.969Z,79.97
2023-03-12T00:55:34.517Z,79.47
2023-03-12T00:58:00.984Z,79.26
2023-03-12T01:00:27.878Z,79.27
2023-03-12T01:02:55.377Z,78.58
2023-03-12T01:05:21.892Z,78.62
2023-03-12T01:07:48.332Z,78.73
2023-03-12T01:10:17.454Z,78.31
2023-03-12T01:12:44.001Z,78.52
2023-03-12T01:15:16.673Z,79.31
2023-03-12T01:17:43.267Z,78.93
2023-03-12T01:20:10.881Z,79.32
2023-03-12T01:22:37.553Z,79.80
2023-03-12T01:25:04.178Z,80.02
2023-03-12T01:27:30.672Z,79.40
2023-03-12T01:29:57.093Z,79.41
2023-03-12T01:32:23.806Z,79.56
2023-03-12T01:34:50.214Z,79.84
2023-03-12T01:37:16.593Z,79.21
2023-03-12T01:39:43.006Z,79.01
2023-03-12T01:42:09.459Z,79.98
2023-03-12T01:45:01.672Z,79.94
2023-03-12T01:47:32.013Z,81.36
2023-03-12T01:50:00.598Z,83.23
2023-03-12T01:52:35.868Z,81.95
2023-03-12T01:55:09.478Z,82.26
2023-03-12T01:58:02.369Z,81.93
2023-03-12T02:00:28.921Z,82.75
2023-03-12T02:03:00.471Z,82.69
2023-03-12T02:05:30.301Z,82.66
2023-03-12T02:07:57.550Z,83.42
2023-03-12T02:10:26.098Z,82.06
2023-03-12T02:12:53.204Z,83.26
2023-03-12T02:15:19.881Z,83.26
2023-03-12T02:17:46.363Z,82.81
2023-03-12T02:20:39.443Z,84.64
2023-03-12T02:23:31.961Z,84.53
2023-03-12T02:26:01.355Z,82.59
2023-03-12T02:28:29.852Z,85.07
2023-03-12T02:31:03.388Z,83.97
2023-03-12T02:33:29.892Z,83.89
2023-03-12T02:35:56.704Z,84.32
2023-03-12T02:38:37.505Z,85.74
2023-03-12T02:41:11.614Z,85.63
2023-03-12T02:43:39.084Z,84.91
2023-03-12T02:46:08.118Z,84.34
2023-03-12T02:48:34.729Z,82.86
2023-03-12T02:51:03.315Z,85.13
2023-03-12T02:53:30.095Z,86.88
2023-03-12T02:55:56.714Z,86.09
2023-03-12T02:58:23.102Z,86.39
2023-03-12T03:00:49.694Z,85.46
2023-03-12T03:03:16.245Z,85.63
2023-03-12T03:05:42.682Z,86.16
2023-03-12T03:08:09.355Z,86.52
2023-03-12T03:10:35.827Z,85.43
2023-03-12T03:13:02.300Z,86.60
2023-03-12T03:15:29.790Z,85.40
2023-03-12T03:17:56.412Z,86.90
2023-03-12T03:20:24.648Z,87.40
2023-03-12T03:22:51.038Z,86.72
2023-03-12T03:25:18.178Z,86.46
2023-03-12T03:27:44.679Z,84.63
2023-03-12T03:30:11.991Z,87.18
2023-03-12T03:32:38.682Z,85.76
2023-03-12T03:35:05.740Z,87.77
2023-03-12T03:37:32.128Z,87.15
2023-03-12T03:39:58.832Z,87.54
2023-03-12T03:42:25.727Z,85.97
2023-03-12T03:44:52.093Z,85.62
2023-03-12T03:47:18.577Z,87.07
2023-03-12T03:49:45.134Z,87.15
2023-03-12T03:52:11.515Z,86.77
2023-03-12T03:54:37.877Z,86.20
2023-03-12T03:57:04.582Z,86.30
2023-03-12T03:59:31.106Z,88.24
2023-03-12T04:01:57.504Z,87.59
2023-03-12T04:04:23.941Z,87.35
2023-03-12T04:06:50.414Z,88.52
2023-03-12T04:09:16.892Z,87.59
2023-03-12T04:11:43.539Z,87.14
2023-03-12T04:14:10.143Z,87.36
2023-03-12T04:16:36.526Z,87.30
2023-03-12T04:19:03.047Z,88.12
2023-03-12T04:21:29.562Z,87.03
2023-03-12T04:23:56.016Z,87.41
2023-03-12T04:26:22.535Z,88.23
2023-03-12T04:28:49.077Z,87.32
2023-03-12T04:31:15.663Z,86.69
2023-03-12T04:33:42.181Z,86.83
2023-03-12T04:36:08.942Z,87.01
2023-03-12T04:38:35.407Z,86.43
2023-03-12T04:41:11.287Z,86.81
2023-03-12T04:43:37.991Z,87.79
2023-03-12T04:46:06.070Z,88.01
2023-03-12T04:48:33.098Z,88.48
2023-03-12T04:50:59.607Z,87.17
2023-03-12T04:53:26.130Z,87.38
2023-03-12T04:55:52.647Z,87.59
2023-03-12T04:58:20.453Z,87.43
2023-03-12T05:00:48.285Z,89.05
2023-03-12T05:03:14.835Z,87.57
2023-03-12T05:05:41.359Z,87.21
2023-03-12T05:08:07.898Z,89.26
2023-03-12T05:10:34.390Z,87.57
2023-03-12T05:13:00.809Z,88.32
2023-03-12T05:15:28.404Z,88.04
2023-03-12T05:17:55.025Z,88.44
2023-03-12T05:20:21.575Z,88.69
2023-03-12T05:22:48.031Z,88.44
2023-03-12T05:25:14.540Z,88.74
2023-03-12T05:27:40.963Z,88.58
2023-03-12T05:30:08.093Z,88.02
2023-03-12T05:32:34.493Z,88.83
2023-03-12T05:35:00.878Z,88.52
2023-03-12T05:37:27.430Z,89.17
2023-03-12T05:39:54.625Z,88.21
2023-03-12T05:42:21.202Z,89.51
2023-03-12T05:44:47.769Z,88.89
2023-03-12T05:47:14.306Z,90.23
2023-03-12T05:49:40.898Z,88.88
2023-03-12T05:52:07.554Z,89.58
2023-03-12T05:54:34.135Z,89.40
2023-03-12T05:57:00.615Z,88.96
2023-03-12T05:59:27.111Z,88.82
2023-03-12T06:01:53.730Z,90.48
2023-03-12T06:04:20.387Z,88.79
2023-03-12T06:06:47.343Z,88.98
2023-03-12T06:09:13.903Z,88.54
2023-03-12T06:11:40.425Z,88.72
2023-03-12T06:14:06.971Z,89.50
2023-03-12T06:16:33.571Z,89.56
2023-03-12T06:19:02.670Z,88.68
2023-03-12T06:21:32.654Z,88.96
2023-03-12T06:24:00.007Z,89.38
2023-03-12T06:26:27.476Z,89.95
2023-03-12T06:28:54.832Z,89.15
2023-03-12T06:31:21.822Z,89.88
2023-03-12T06:33:48.953Z,91.63
2023-03-12T06:36:15.566Z,90.79
2023-03-12T06:38:42.124Z,88.88
2023-03-12T06:41:11.613Z,88.16
2023-03-12T06:43:39.202Z,87.37
2023-03-12T06:46:08.554Z,87.85
2023-03-12T06:48:41.338Z,88.60
2023-03-12T06:51:10.605Z,87.45
2023-03-12T06:53:37.285Z,86.60
2023-03-12T06:56:04.205Z,87.04
2023-03-12T06:58:31.250Z,87.66
2023-03-12T07:00:57.926Z,86.88
2023-03-12T07:03:24.517Z,86.94
2023-03-12T07:05:51.991Z,87.01
2023-03-12T07:08:19.667Z,86.39
2023-03-12T07:10:46.193Z,86.82
2023-03-12T07:13:13.674Z,86.58
2023-03-12T07:15:40.706Z,86.15
2023-03-12T07:18:11.470Z,86.01
2023-03-12T07:20:39.972Z,84.69
2023-03-12T07:23:06.965Z,85.17
2023-03-12T07:25:40.079Z,84.13
2023-03-12T07:28:07.867Z,84.72
2023-03-12T07:30:34.609Z,83.89
2023-03-12T07:33:02.819Z,84.14
2023-03-12T07:35:30.143Z,83.90
2023-03-12T07:37:57.123Z,84.11
2023-03-12T07:40:23.668Z,83.77
2023-03-12T07:42:51.114Z,84.06
2023-03-12T07:45:18.404Z,83.24
2023-03-12T07:47:45.118Z,83.81
2023-03-12T07:50:12.566Z,83.54
2023-03-12T07:52:39.230Z,83.33
2023-03-12T07:55:07.624Z,81.78
2023-03-12T07:57:34.090Z,81.60
2023-03-12T08:00:00.700Z,81.18
2023-03-12T08:02:28.302Z,79.86
2023-03-12T08:04:54.928Z,81.88
2023-03-12T08:07:21.684Z,80.71
2023-03-12T08:09:49.437Z,77.75
2023-03-12T08:12:16.054Z,78.29
2023-03-12T08:14:42.822Z,79.73
2023-03-12T08:17:10.446Z,77.98
2023-03-12T08:19:37.405Z,78.25
2023-03-12T08:22:03.966Z,78.42
2023-03-12T08:24:30.395Z,78.28
2023-03-12T08:26:57.807Z,76.87
2023-03-12T08:29:25.601Z,77.00
2023-03-12T08:32:04.608Z,77.51
2023-03-12T08:34:35.479Z,76.32
2023-03-12T08:37:02.918Z,75.39
2023-03-12T08:39:29.552Z,74.46
2023-03-12T08:41:56.949Z,74.34
2023-03-12T08:44:24.747Z,72.34
2023-03-12T08:46:52.729Z,73.00
2023-03-12T08:49:21.377Z,71.47
2023-03-12T08:51:48.544Z,72.84
2023-03-12T08:54:16.020Z,71.07
2023-03-12T08:56:44.394Z,70.58
2023-03-12T08:59:11.583Z,69.69
2023-03-12T09:01:38.390Z,67.55
2023-03-12T09:04:05.682Z,66.69
2023-03-12T09:06:35.355Z,67.33
2023-03-12T09:09:05.085Z,68.01
2023-03-12T09:11:39.515Z,68.55
2023-03-12T09:14:49.831Z,66.11
2023-03-12T09:16:52.470Z,67.00
2023-03-12T09:19:19.012Z,67.02
2023-03-12T09:21:45.450Z,66.32
2023-03-12T09:24:12.216Z,66.72
2023-03-12T09:26:38.624Z,65.48
2023-03-12T09:29:05.550Z,63.67
2023-03-12T09:31:32.113Z,65.10
2023-03-12T09:33:58.637Z,64.46
2023-03-12T09:36:26.391Z,63.00
2023-03-12T09:38:52.837Z,64.22
2023-03-12T09:41:33.721Z,65.14
2023-03-12T09:44:10.181Z,64.68
2023-03-12T09:46:43.156Z,64.87
2023-03-12T09:49:40.693Z,65.82
2023-03-12T09:52:31.931Z,66.00
2023-03-12T09:55:17.176Z,65.97
2023-03-12T09:57:44.772Z,65.28
2023-03-12T10:00:14.389Z,64.23
2023-03-12T10:03:05.837Z,62.87
2023-03-12T10:05:34.979Z,65.02
2023-03-12T10:08:26.243Z,65.81
2023-03-12T10:11:02.856Z,66.86
2023-03-12T10:14:10.736Z,67.08
2023-03-12T10:16:54.608Z,66.85
2023-03-12T10:19:36.021Z,68.92
2023-03-12T10:22:15.694Z,68.87
2023-03-12T10:24:56.594Z,69.40
2023-03-12T10:27:27.990Z,69.14
2023-03-12T10:29:55.282Z,69.07
2023-03-12T10:32:45.854Z,67.51
2023-03-12T10:35:24.192Z,68.21
2023-03-12T10:38:04.499Z,67.77
2023-03-12T10:40:34.553Z,69.26
2023-03-12T10:43:02.523Z,69.08
2023-03-12T10:46:02.205Z,68.57
2023-03-12T10:48:28.667Z,69.08
2023-03-12T10:51:03.393Z,69.56
2023-03-12T10:53:33.226Z,69.63
2023-03-12T10:56:01.402Z,70.05
2023-03-12T10:58:35.024Z,70.47
2023-03-12T11:01:04.386Z,70.50
2023-03-12T11:03:31.775Z,69.34
2023-03-12T11:06:05.984Z,70.46
2023-03-12T11:08:35.720Z,69.95
2023-03-12T11:11:03.993Z,70.59
2023-03-12T11:13:30.341Z,71.48
2023-03-12T11:15:59.972Z,72.26
2023-03-12T11:18:30.307Z,74.05
2023-03-12T11:21:10.622Z,75.34
2023-03-12T11:23:43.877Z,74.66
2023-03-12T11:26:16.187Z,73.23
2023-03-12T11:28:56.252Z,74.59
2023-03-12T11:31:27.608Z,76.07
2023-03-12T11:34:03.606Z,76.56
2023-03-12T11:36:51.330Z,77.66
2023-03-12T11:39:43.884Z,77.67
2023-03-12T11:42:44.855Z,77.61
2023-03-12T11:45:26.354Z,77.48
2023-03-12T11:48:01.996Z,78.72
2023-03-12T11:50:45.938Z,78.70
2023-03-12T11:53:44.722Z,78.67
2023-03-12T11:56:37.752Z,79.35
2023-03-12T11:59:23.014Z,78.96
2023-03-12T12:02:04.485Z,80.08
2023-03-12T12:04:48.721Z,79.75
2023-03-12T12:07:39.981Z,80.22
2023-03-12T12:10:09.363Z,78.87
2023-03-12T12:13:22.247Z,79.31
2023-03-12T12:16:22.233Z,78.37
2023-03-12T12:19:18.242Z,78.75
2023-03-12T12:21:54.762Z,78.92
2023-03-12T12:24:30.986Z,79.07
2023-03-12T12:27:38.626Z,78.85
2023-03-12T12:30:47.055Z,80.15
2023-03-12T12:33:56.212Z,81.18
2023-03-12T12:36:27.345Z,80.85
2023-03-12T12:39:01.281Z,81.19
2023-03-12T12:41:34.662Z,81.05
2023-03-12T12:44:30.060Z,79.81
2023-03-12T12:47:03.839Z,80.81
2023-03-12T12:49:46.971Z,80.89
2023-03-12T12:52:20.062Z,81.23
2023-03-12T12:54:55.209Z,80.88
2023-03-12T12:57:53.978Z,82.05
2023-03-12T13:00:23.488Z,81.47
2023-03-12T13:02:51.264Z,81.88
2023-03-12T13:05:26.733Z,82.15
2023-03-12T13:07:53.450Z,81.85
2023-03-12T13:10:57.454Z,82.90
2023-03-12T13:13:29.298Z,82.64
2023-03-12T13:16:19.264Z,83.74
2023-03-12T13:19:07.425Z,83.86
2023-03-12T13:21:40.619Z,84.02
2023-03-12T13:24:32.022Z,83.76
2023-03-12T13:27:20.379Z,84.53
2023-03-12T13:29:47.012Z,83.98
2023-03-12T13:32:35.126Z,84.93
2023-03-12T13:35:32.492Z,84.76
2023-03-12T13:38:04.970Z,84.54
2023-03-12T13:40:32.701Z,84.01
2023-03-12T13:43:08.161Z,85.33
2023-03-12T13:45:55.574Z,85.84
2023-03-12T13:48:24.931Z,86.63
2023-03-12T13:51:18.964Z,86.77
2023-03-12T13:53:52.789Z,86.88
2023-03-12T13:56:26.292Z,86.78
2023-03-12T13:59:06.838Z,87.78
2023-03-12T14:01:40.939Z,87.51
2023-03-12T14:04:20.365Z,87.83
2023-03-12T14:07:06.289Z,87.67
2023-03-12T14:09:45.866Z,88.22
2023-03-12T14:12:43.411Z,88.34
2023-03-12T14:15:27.357Z,88.19
2023-03-12T14:18:12.362Z,88.18
2023-03-12T14:20:39.921Z,89.04
2023-03-12T14:23:13.068Z,88.88
2023-03-12T14:25:43.607Z,88.00
2023-03-12T14:28:29.067Z,88.52
2023-03-12T14:31:08.419Z,88.58
2023-03-12T14:33:58.229Z,88.10
2023-03-12T14:36:45.073Z,88.54
2023-03-12T14:39:55.731Z,88.65
2023-03-12T14:42:34.428Z,89.16
2023-03-12T14:45:18.010Z,89.55
2023-03-12T14:47:52.572Z,90.63
2023-03-12T14:50:40.409Z,90.38
2023-03-12T14:53:29.329Z,90.25
2023-03-12T14:56:05.268Z,90.83
2023-03-12T14:58:34.264Z,91.09
2023-03-12T15:01:12.348Z,91.59
2023-03-12T15:03:48.144Z,90.90
2023-03-12T15:06:38.434Z,91.79
2023-03-12T15:09:07.070Z,92.25
2023-03-12T15:11:36.720Z,91.65
2023-03-12T15:14:11.852Z,92.19
2023-03-12T15:16:38.587Z,91.72
2023-03-12T15:19:05.263Z,92.13
2023-03-12T15:21:36.195Z,92.25
2023-03-12T15:24:03.572Z,92.24
2023-03-12T15:26:34.457Z,92.40
2023-03-12T15:29:26.724Z,92.32
2023-03-12T15:32:14.191Z,92.94
2023-03-12T15:34:41.898Z,93.01
2023-03-12T15:37:38.649Z,92.83
2023-03-12T15:40:19.727Z,92.74
2023-03-12T15:42:47.800Z,93.58
2023-03-12T15:45:24.453Z,93.31
2023-03-12T15:47:53.563Z,93.31
2023-03-12T15:50:25.755Z,93.31
2023-03-12T15:53:18.542Z,92.89
2023-03-12T15:56:07.571Z,92.48
2023-03-12T15:58:35.058Z,93.15
2023-03-12T16:01:16.575Z,92.81
2023-03-12T16:03:45.560Z,92.29
2023-03-12T16:06:20.809Z,92.50
2023-03-12T16:08:53.082Z,92.19
2023-03-12T16:11:22.866Z,92.77
2023-03-12T16:13:52.036Z,92.51
2023-03-12T16:16:18.954Z,92.62
2023-03-12T16:18:45.436Z,92.82
2023-03-12T16:21:12.806Z,92.75
2023-03-12T16:23:39.783Z,92.68
2023-03-12T16:26:06.978Z,92.29
2023-03-12T16:28:36.233Z,92.28
2023-03-12T16:31:03.310Z,92.58
2023-03-12T16:33:29.834Z,92.35
2023-03-12T16:35:57.065Z,92.77
2023-03-12T16:38:23.571Z,92.69
2023-03-12T16:40:51.920Z,93.52
2023-03-12T16:43:24.565Z,93.67
2023-03-12T16:45:52.803Z,92.68
2023-03-12T16:48:23.037Z,93.40
2023-03-12T16:50:55.932Z,93.68
2023-03-12T16:53:23.495Z,92.80
2023-03-12T16:55:53.604Z,92.89
2023-03-12T16:58:21.347Z,93.39
2023-03-12T17:00:49.138Z,93.86
2023-03-12T17:03:36.446Z,92.87
2023-03-12T17:06:05.520Z,93.13
2023-03-12T17:08:32.154Z,93.78
2023-03-12T17:10:59.936Z,93.58
2023-03-12T17:13:28.569Z,93.74
2023-03-12T17:15:55.698Z,93.63
2023-03-12T17:18:22.493Z,93.40
2023-03-12T17:20:51.818Z,94.34
2023-03-12T17:23:18.890Z,93.70
2023-03-12T17:25:46.008Z,94.51
2023-03-12T17:28:13.689Z,94.61
2023-03-12T17:30:40.407Z,94.52
2023-03-12T17:33:10.682Z,94.73
2023-03-12T17:35:37.903Z,94.19
2023-03-12T17:38:06.424Z,94.52
2023-03-12T17:40:32.982Z,95.05
2023-03-12T17:42:59.515Z,94.96
2023-03-12T17:45:26.802Z,94.54
2023-03-12T17:47:53.313Z,94.19
2023-03-12T17:50:19.972Z,94.35
2023-03-12T17:52:46.479Z,94.58
2023-03-12T17:55:15.074Z,94.87
2023-03-12T17:57:42.581Z,94.40
2023-03-12T18:00:12.777Z,94.57
2023-03-12T18:02:41.449Z,94.81
2023-03-12T18:05:10.095Z,95.17
2023-03-12T18:07:37.080Z,93.85
2023-03-12T18:10:06.457Z,93.80
2023-03-12T18:12:33.764Z,94.50
2023-03-12T18:15:00.659Z,95.43
2023-03-12T18:17:27.124Z,94.15
2023-03-12T18:19:53.579Z,94.82
2023-03-12T18:22:20.098Z,95.16
2023-03-12T18:24:47.776Z,94.81
2023-03-12T18:27:14.319Z,94.94
2023-03-12T18:29:41.238Z,94.82
2023-03-12T18:32:08.939Z,94.48
2023-03-12T18:34:35.811Z,95.33
2023-03-12T18:37:02.338Z,95.24
2023-03-12T18:39:28.818Z,95.83
2023-03-12T18:41:55.845Z,94.70
2023-03-12T18:44:22.487Z,95.21
2023-03-12T18:46:50.864Z,94.95
2023-03-12T18:49:17.814Z,95.33
2023-03-12T18:51:44.315Z,95.51
2023-03-12T18:54:12.527Z,95.31
2023-03-12T18:56:40.937Z,95.00
2023-03-12T18:59:09.806Z,95.00
2023-03-12T19:01:36.495Z,94.98
2023-03-12T19:04:03.058Z,95.76
2023-03-12T19:06:33.104Z,95.96
2023-03-12T19:09:09.603Z,96.59
2023-03-12T19:11:36.172Z,95.82
2023-03-12T19:14:03.310Z,95.30
2023-03-12T19:16:31.033Z,95.43
2023-03-12T19:18:57.822Z,95.38
2023-03-12T19:21:24.229Z,95.95
2023-03-12T19:23:50.767Z,96.18
2023-03-12T19:26:17.112Z,96.92
2023-03-12T19:28:43.850Z,95.71
2023-03-12T19:31:13.495Z,96.08
2023-03-12T19:33:41.850Z,96.44
2023-03-12T19:36:09.122Z,96.73
2023-03-12T19:38:35.676Z,96.78
2023-03-12T19:41:02.260Z,96.59
2023-03-12T19:43:28.705Z,96.05
2023-03-12T19:45:55.878Z,96.23
2023-03-12T19:48:25.371Z,96.06
2023-03-12T19:50:53.775Z,96.67
2023-03-12T19:53:20.777Z,96.18
2023-03-12T19:55:48.877Z,96.95
2023-03-12T19:58:16.246Z,96.26
2023-03-12T20:00:43.556Z,96.26
2023-03-12T20:03:10.452Z,96.74
2023-03-12T20:05:37.088Z,97.02
2023-03-12T20:08:03.810Z,97.19
2023-03-12T20:10:32.187Z,96.30
2023-03-12T20:12:59.642Z,96.40
2023-03-12T20:15:32.114Z,96.72
2023-03-12T20:17:58.637Z,97.05
2023-03-12T20:20:25.693Z,97.39
2023-03-12T20:22:54.057Z,97.21
2023-03-12T20:25:28.496Z,96.60
2023-03-12T20:27:56.631Z,97.02
2023-03-12T20:30:23.273Z,96.91
2023-03-12T20:32:49.738Z,97.43
2023-03-12T20:35:18.432Z,96.71
2023-03-12T20:37:46.113Z,97.27
2023-03-12T20:40:13.800Z,97.35
2023-03-12T20:42:41.565Z,96.86
2023-03-12T20:45:10.559Z,97.38
2023-03-12T20:47:40.078Z,96.80
2023-03-12T20:50:07.736Z,96.72
2023-03-12T20:52:34.288Z,96.85
2023-03-12T20:55:00.798Z,97.33
2023-03-12T20:57:27.332Z,96.69
2023-03-12T20:59:53.732Z,97.04
2023-03-12T21:02:20.179Z,96.66
2023-03-12T21:04:46.782Z,97.53
2023-03-12T21:07:13.229Z,97.56
2023-03-12T21:09:39.764Z,97.04
2023-03-12T21:12:06.304Z,97.32
2023-03-12T21:14:32.762Z,96.91
2023-03-12T21:16:59.445Z,97.86
2023-03-12T21:19:29.536Z,97.36
2023-03-12T21:21:56.065Z,97.41
2023-03-12T21:24:23.596Z,97.10
2023-03-12T21:26:50.070Z,97.21
2023-03-12T21:29:16.478Z,97.35
2023-03-12T21:31:44.109Z,97.77
2023-03-12T21:34:10.622Z,97.44
2023-03-12T21:36:37.033Z,97.84
2023-03-12T21:39:03.666Z,97.81
2023-03-12T21:41:30.269Z,97.33
2023-03-12T21:44:01.227Z,97.54
2023-03-12T21:46:29.941Z,98.17
2023-03-12T21:48:57.741Z,97.60
2023-03-12T21:51:26.072Z,97.52
2023-03-12T21:53:57.715Z,97.63
2023-03-12T21:56:28.850Z,98.52
2023-03-12T21:58:57.182Z,97.99
2023-03-12T22:01:23.833Z,98.54
2023-03-12T22:03:50.389Z,98.46
2023-03-12T22:06:17.221Z,97.64
2023-03-12T22:08:44.706Z,98.01
2023-03-12T22:11:11.134Z,98.11
2023-03-12T22:13:37.558Z,97.65
2023-03-12T22:16:07.545Z,98.06
2023-03-12T22:18:38.193Z,98.28
2023-03-12T22:21:05.435Z,98.51
2023-03-12T22:23:32.184Z,97.59
2023-03-12T22:26:03.924Z,97.71
2023-03-12T22:28:31.482Z,98.03
2023-03-12T22:31:03.322Z,97.50
2023-03-12T22:33:30.085Z,98.31
2023-03-12T22:35:57.097Z,98.07
2023-03-12T22:38:24.899Z,97.94
2023-03-12T22:40:53.180Z,97.95
2023-03-12T22:43:21.573Z,97.49
2023-03-12T22:45:52.972Z,98.24
2023-03-12T22:48:19.411Z,97.91
2023-03-12T22:50:53.309Z,97.54
2023-03-12T22:53:19.783Z,98.49
2023-03-12T22:55:46.306Z,98.30
2023-03-12T22:58:13.130Z,98.68
2023-03-12T23:00:39.511Z,98.26
2023-03-12T23:03:05.921Z,98.28
2023-03-12T23:05:32.442Z,98.55
2023-03-12T23:07:58.811Z,97.87
2023-03-12T23:10:25.269Z,99.00
2023-03-12T23:12:51.715Z,98.87
2023-03-12T23:15:19.805Z,98.91
2023-03-12T23:17:46.288Z,97.96
2023-03-12T23:20:13.381Z,98.10
2023-03-12T23:22:39.794Z,99.02
2023-03-12T23:25:06.564Z,98.02
2023-03-12T23:27:32.972Z,98.58
2023-03-12T23:29:59.428Z,98.49
2023-03-12T23:32:25.897Z,97.84
2023-03-12T23:34:52.396Z,98.46
2023-03-12T23:37:18.916Z,98.18
2023-03-12T23:39:54.489Z,98.04
2023-03-12T23:42:21.489Z,98.14
2023-03-12T23:44:47.963Z,98.50
2023-03-12T23:47:14.454Z,97.42
2023-03-12T23:49:40.840Z,98.08
2023-03-12T23:52:07.339Z,97.84
2023-03-12T23:54:33.724Z,98.03
2023-03-12T23:57:00.204Z,98.42
2023-03-12T23:59:26.690Z,98.12
